Samson, AL (36477)

6:13 AM CDT on August 31, 2014 (GMT -0500)
Florala | Change Station
CLOSE
Current Station
Airport
Location: Florala,
Elevation: 315 ft
Nearby Weather Stations

Elev 315 ft 31.04 °N, 86.31 °W | Updated 15 minutes ago

Fog
Fog
76 °F
Feels Like 76 °F
N
4
Wind Variable Wind from East

Today
High -- | Low -- °F
--% Chance of Precip.
Yesterday
High -- | Low -- °F
Precip. -- in
6:19 AM 7:08 PM
Waxing Crescent, 30% visible
Pressure 30.13 in
Visibility 0.2 miles
Clouds
Dew Point 74 °F
Humidity 94%
Rainfall 0.00 in
Snow Depth Not available.
UV Not available.
Pollen 7.60 out of 12
Air Quality Not available.
Flu Activity Not available.
METAR K0J4 311058Z AUTO 10003KT 1/4SM FG VV001 24/23 A3015 RMK AO2 SLP203 T02440233

More Conditions Fewer Conditions

Pressure 30.13 in
Visibility 0.2 miles
Clouds
Dew Point 74 °F
Humidity 94%
Rainfall 0.00 in
Snow Depth Not available.
UV Not available.
Pollen 7.60 out of 12
Air Quality Not available.
Flu Activity Not available.
METAR K0J4 311058Z AUTO 10003KT 1/4SM FG VV001 24/23 A3015 RMK AO2 SLP203 T02440233

More Conditions Fewer Conditions

10-Day Weather Forecast

Almanac

Astronomy

Aug. 31, 2014 Rise Set
Actual Time 6:19 AM CDT 7:08 PM CDT
Civil Twilight 5:55 AM CDT 7:33 PM CDT
Nautical Twilight 5:25 AM CDT 8:02 PM CDT
Astronomical Twilight 4:55 AM CDT 8:32 PM CDT
Moon 11:41 AM CDT 10:48 PM CDT
Length of Visible Light 13h 38m
Length of Day
12h 49m
Tomorrow will be 1m 48s shorter.
Waxing Crescent, 30% of the Moon is Illuminated
Today
Waxing Crescent
Sep 2
First Quarter
Sep 8
Full
Sep 15
Last Quarter
Sep 24
New

Today's Extremes

State Highs State Lows

Community

WunderPhotos

Upload Photos

1,748,840 photos uploaded!

Nearby

Snow Depth

Station Depth Elevation
No new snow has been reported.

Earthquake Activity

City Distance Mag. Time & Date
No recent earthquake activity has been reported nearby.
Minimum magnitude displayed is 2.5.

Coastal Water Temperatures

Place Temperature
No Stations Reporting

Nearby Weather Stations